sensor_id;sensor_type;location;lat;lon;timestamp;temperature;humidity
71175;DHT22;58876;51.994;4.472;2022-11-06T00:01:08;11.65;81.57
71175;DHT22;58876;51.994;4.472;2022-11-06T00:03:35;11.69;81.39
71175;DHT22;58876;51.994;4.472;2022-11-06T00:06:08;11.60;81.70
71175;DHT22;58876;51.994;4.472;2022-11-06T00:08:53;11.56;81.63
71175;DHT22;58876;51.994;4.472;2022-11-06T00:11:19;11.69;81.52
71175;DHT22;58876;51.994;4.472;2022-11-06T00:13:45;11.73;81.22
71175;DHT22;58876;51.994;4.472;2022-11-06T00:16:17;11.74;81.53
71175;DHT22;58876;51.994;4.472;2022-11-06T00:18:44;11.69;81.73
71175;DHT22;58876;51.994;4.472;2022-11-06T00:21:18;11.83;81.32
71175;DHT22;58876;51.994;4.472;2022-11-06T00:23:44;11.87;81.01
71175;DHT22;58876;51.994;4.472;2022-11-06T00:26:16;11.69;81.57
71175;DHT22;58876;51.994;4.472;2022-11-06T00:28:42;11.67;82.03
71175;DHT22;58876;51.994;4.472;2022-11-06T00:31:13;11.69;82.02
71175;DHT22;58876;51.994;4.472;2022-11-06T00:33:40;11.55;82.44
71175;DHT22;58876;51.994;4.472;2022-11-06T00:36:09;11.71;82.47
71175;DHT22;58876;51.994;4.472;2022-11-06T00:38:35;11.74;82.08
71175;DHT22;58876;51.994;4.472;2022-11-06T00:41:06;11.69;82.66
71175;DHT22;58876;51.994;4.472;2022-11-06T00:43:32;11.56;83.13
71175;DHT22;58876;51.994;4.472;2022-11-06T00:48:27;11.63;82.76
71175;DHT22;58876;51.994;4.472;2022-11-06T00:50:52;11.59;83.41
71175;DHT22;58876;51.994;4.472;2022-11-06T00:53:18;11.55;83.50
71175;DHT22;58876;51.994;4.472;2022-11-06T00:55:43;11.46;84.18
71175;DHT22;58876;51.994;4.472;2022-11-06T00:58:08;11.53;84.72
71175;DHT22;58876;51.994;4.472;2022-11-06T01:00:34;11.35;85.44
71175;DHT22;58876;51.994;4.472;2022-11-06T01:02:59;11.23;86.02
71175;DHT22;58876;51.994;4.472;2022-11-06T01:05:26;11.22;86.36
71175;DHT22;58876;51.994;4.472;2022-11-06T01:07:51;11.29;86.44
71175;DHT22;58876;51.994;4.472;2022-11-06T01:10:17;11.23;86.87
71175;DHT22;58876;51.994;4.472;2022-11-06T01:12:42;11.11;87.22
71175;DHT22;58876;51.994;4.472;2022-11-06T01:15:08;11.23;87.51
71175;DHT22;58876;51.994;4.472;2022-11-06T01:17:34;11.26;86.97
71175;DHT22;58876;51.994;4.472;2022-11-06T01:20:01;11.11;87.69
71175;DHT22;58876;51.994;4.472;2022-11-06T01:22:26;11.11;87.50
71175;DHT22;58876;51.994;4.472;2022-11-06T01:24:51;11.15;87.76
71175;DHT22;58876;51.994;4.472;2022-11-06T01:27:17;11.07;88.10
71175;DHT22;58876;51.994;4.472;2022-11-06T01:29:43;11.07;88.18
71175;DHT22;58876;51.994;4.472;2022-11-06T01:32:09;11.18;87.95
71175;DHT22;58876;51.994;4.472;2022-11-06T01:34:35;11.16;87.74
71175;DHT22;58876;51.994;4.472;2022-11-06T01:37:00;11.18;87.58
71175;DHT22;58876;51.994;4.472;2022-11-06T01:39:26;11.12;87.69
71175;DHT22;58876;51.994;4.472;2022-11-06T01:41:52;11.11;88.02
71175;DHT22;58876;51.994;4.472;2022-11-06T01:47:26;11.18;88.00
71175;DHT22;58876;51.994;4.472;2022-11-06T01:49:56;11.12;87.80
71175;DHT22;58876;51.994;4.472;2022-11-06T01:52:26;11.19;88.19
71175;DHT22;58876;51.994;4.472;2022-11-06T01:55:07;11.28;87.90
71175;DHT22;58876;51.994;4.472;2022-11-06T01:57:35;11.08;88.16
71175;DHT22;58876;51.994;4.472;2022-11-06T02:00:03;11.02;88.71
71175;DHT22;58876;51.994;4.472;2022-11-06T02:02:28;11.02;88.78
71175;DHT22;58876;51.994;4.472;2022-11-06T02:04:54;10.95;88.71
71175;DHT22;58876;51.994;4.472;2022-11-06T02:07:20;11.04;88.52
71175;DHT22;58876;51.994;4.472;2022-11-06T02:09:45;10.94;88.87
71175;DHT22;58876;51.994;4.472;2022-11-06T02:12:13;11.09;88.50
71175;DHT22;58876;51.994;4.472;2022-11-06T02:17:26;11.07;88.48
71175;DHT22;58876;51.994;4.472;2022-11-06T02:22:54;11.11;88.35
71175;DHT22;58876;51.994;4.472;2022-11-06T02:25:37;11.16;88.17
71175;DHT22;58876;51.994;4.472;2022-11-06T02:28:22;11.18;87.90
71175;DHT22;58876;51.994;4.472;2022-11-06T02:30:51;11.18;88.34
71175;DHT22;58876;51.994;4.472;2022-11-06T02:33:27;11.07;88.42
71175;DHT22;58876;51.994;4.472;2022-11-06T02:36:00;11.25;88.27
71175;DHT22;58876;51.994;4.472;2022-11-06T02:38:39;11.15;88.29
71175;DHT22;58876;51.994;4.472;2022-11-06T02:41:12;11.12;88.49
71175;DHT22;58876;51.994;4.472;2022-11-06T02:43:42;11.29;88.12
71175;DHT22;58876;51.994;4.472;2022-11-06T02:46:20;11.16;88.29
71175;DHT22;58876;51.994;4.472;2022-11-06T02:48:52;11.15;88.88
71175;DHT22;58876;51.994;4.472;2022-11-06T02:51:25;11.14;89.03
71175;DHT22;58876;51.994;4.472;2022-11-06T02:53:57;11.05;89.27
71175;DHT22;58876;51.994;4.472;2022-11-06T02:56:28;11.08;88.88
71175;DHT22;58876;51.994;4.472;2022-11-06T02:59:11;10.97;89.19
71175;DHT22;58876;51.994;4.472;2022-11-06T03:01:46;10.95;89.37
71175;DHT22;58876;51.994;4.472;2022-11-06T03:06:55;11.12;88.46
71175;DHT22;58876;51.994;4.472;2022-11-06T03:09:28;11.07;88.50
71175;DHT22;58876;51.994;4.472;2022-11-06T03:12:01;11.14;88.23
71175;DHT22;58876;51.994;4.472;2022-11-06T03:14:41;11.08;88.19
71175;DHT22;58876;51.994;4.472;2022-11-06T03:20:00;11.14;88.11
71175;DHT22;58876;51.994;4.472;2022-11-06T03:22:40;11.16;88.31
71175;DHT22;58876;51.994;4.472;2022-11-06T03:25:21;11.28;88.25
71175;DHT22;58876;51.994;4.472;2022-11-06T03:28:05;11.16;88.27
71175;DHT22;58876;51.994;4.472;2022-11-06T03:30:38;11.16;88.38
71175;DHT22;58876;51.994;4.472;2022-11-06T03:35:52;11.19;88.23
71175;DHT22;58876;51.994;4.472;2022-11-06T03:38:36;11.19;88.11
71175;DHT22;58876;51.994;4.472;2022-11-06T03:41:20;11.33;87.60
71175;DHT22;58876;51.994;4.472;2022-11-06T03:43:49;11.35;87.66
71175;DHT22;58876;51.994;4.472;2022-11-06T03:46:20;11.33;87.53
71175;DHT22;58876;51.994;4.472;2022-11-06T03:49:17;11.29;87.72
71175;DHT22;58876;51.994;4.472;2022-11-06T03:52:07;11.42;87.55
71175;DHT22;58876;51.994;4.472;2022-11-06T03:54:43;11.36;87.30
71175;DHT22;58876;51.994;4.472;2022-11-06T03:57:27;11.38;87.27
71175;DHT22;58876;51.994;4.472;2022-11-06T03:59:58;11.44;87.03
71175;DHT22;58876;51.994;4.472;2022-11-06T04:02:30;11.36;87.27
71175;DHT22;58876;51.994;4.472;2022-11-06T04:05:06;11.40;87.00
71175;DHT22;58876;51.994;4.472;2022-11-06T04:07:38;11.56;86.41
71175;DHT22;58876;51.994;4.472;2022-11-06T04:10:09;11.56;86.44
71175;DHT22;58876;51.994;4.472;2022-11-06T04:12:57;11.60;86.31
71175;DHT22;58876;51.994;4.472;2022-11-06T04:15:52;11.40;86.77
71175;DHT22;58876;51.994;4.472;2022-11-06T04:18:18;11.39;86.67
71175;DHT22;58876;51.994;4.472;2022-11-06T04:20:54;11.43;86.88
71175;DHT22;58876;51.994;4.472;2022-11-06T04:24:08;11.55;86.53
71175;DHT22;58876;51.994;4.472;2022-11-06T04:26:57;11.66;86.17
71175;DHT22;58876;51.994;4.472;2022-11-06T04:37:35;11.70;86.30
71175;DHT22;58876;51.994;4.472;2022-11-06T04:40:08;11.58;86.60
71175;DHT22;58876;51.994;4.472;2022-11-06T04:43:00;11.56;86.86
71175;DHT22;58876;51.994;4.472;2022-11-06T04:45:38;11.52;86.94
71175;DHT22;58876;51.994;4.472;2022-11-06T04:48:06;11.44;87.34
71175;DHT22;58876;51.994;4.472;2022-11-06T04:50:41;11.40;87.84
71175;DHT22;58876;51.994;4.472;2022-11-06T04:53:10;11.49;87.61
71175;DHT22;58876;51.994;4.472;2022-11-06T04:55:51;11.43;87.87
71175;DHT22;58876;51.994;4.472;2022-11-06T04:58:17;11.29;88.52
71175;DHT22;58876;51.994;4.472;2022-11-06T05:00:45;11.36;88.40
71175;DHT22;58876;51.994;4.472;2022-11-06T05:03:12;11.23;88.45
71175;DHT22;58876;51.994;4.472;2022-11-06T05:05:38;11.39;88.17
71175;DHT22;58876;51.994;4.472;2022-11-06T05:08:04;11.23;88.63
71175;DHT22;58876;51.994;4.472;2022-11-06T05:10:29;11.35;88.23
71175;DHT22;58876;51.994;4.472;2022-11-06T05:12:55;11.32;88.43
71175;DHT22;58876;51.994;4.472;2022-11-06T05:15:21;11.36;88.29
71175;DHT22;58876;51.994;4.472;2022-11-06T05:17:47;11.33;88.08
71175;DHT22;58876;51.994;4.472;2022-11-06T05:20:12;11.33;88.00
71175;DHT22;58876;51.994;4.472;2022-11-06T05:22:41;11.25;88.33
71175;DHT22;58876;51.994;4.472;2022-11-06T05:25:23;11.38;87.91
71175;DHT22;58876;51.994;4.472;2022-11-06T05:27:49;11.36;88.17
71175;DHT22;58876;51.994;4.472;2022-11-06T05:30:14;11.25;88.40
71175;DHT22;58876;51.994;4.472;2022-11-06T05:32:40;11.28;88.45
71175;DHT22;58876;51.994;4.472;2022-11-06T05:35:06;11.32;88.50
71175;DHT22;58876;51.994;4.472;2022-11-06T05:37:31;11.35;88.24
71175;DHT22;58876;51.994;4.472;2022-11-06T05:39:57;11.33;88.23
71175;DHT22;58876;51.994;4.472;2022-11-06T05:42:22;11.32;88.06
71175;DHT22;58876;51.994;4.472;2022-11-06T05:44:47;11.39;88.21
71175;DHT22;58876;51.994;4.472;2022-11-06T05:47:13;11.52;88.16
71175;DHT22;58876;51.994;4.472;2022-11-06T05:49:38;11.28;88.07
71175;DHT22;58876;51.994;4.472;2022-11-06T05:52:04;11.31;88.55
71175;DHT22;58876;51.994;4.472;2022-11-06T05:54:29;11.36;88.41
71175;DHT22;58876;51.994;4.472;2022-11-06T05:56:55;11.44;87.83
71175;DHT22;58876;51.994;4.472;2022-11-06T05:59:20;11.38;88.05
71175;DHT22;58876;51.994;4.472;2022-11-06T06:01:46;11.38;88.06
71175;DHT22;58876;51.994;4.472;2022-11-06T06:04:11;11.32;88.32
71175;DHT22;58876;51.994;4.472;2022-11-06T06:06:37;11.31;88.10
71175;DHT22;58876;51.994;4.472;2022-11-06T06:09:02;11.43;87.93
71175;DHT22;58876;51.994;4.472;2022-11-06T06:11:28;11.46;87.93
71175;DHT22;58876;51.994;4.472;2022-11-06T06:13:53;11.42;87.68
71175;DHT22;58876;51.994;4.472;2022-11-06T06:16:20;11.38;88.00
71175;DHT22;58876;51.994;4.472;2022-11-06T06:18:48;11.19;88.26
71175;DHT22;58876;51.994;4.472;2022-11-06T06:21:14;11.38;87.70
71175;DHT22;58876;51.994;4.472;2022-11-06T06:23:40;11.32;87.75
71175;DHT22;58876;51.994;4.472;2022-11-06T06:26:07;11.23;88.48
71175;DHT22;58876;51.994;4.472;2022-11-06T06:28:33;11.32;88.07
71175;DHT22;58876;51.994;4.472;2022-11-06T06:31:02;11.35;88.20
71175;DHT22;58876;51.994;4.472;2022-11-06T06:33:28;11.18;88.60
71175;DHT22;58876;51.994;4.472;2022-11-06T06:35:53;11.02;89.18
71175;DHT22;58876;51.994;4.472;2022-11-06T06:38:19;11.07;88.81
71175;DHT22;58876;51.994;4.472;2022-11-06T06:40:44;11.19;88.69
71175;DHT22;58876;51.994;4.472;2022-11-06T06:43:09;11.31;87.93
71175;DHT22;58876;51.994;4.472;2022-11-06T06:45:35;11.28;87.75
71175;DHT22;58876;51.994;4.472;2022-11-06T06:48:02;11.43;87.39
71175;DHT22;58876;51.994;4.472;2022-11-06T06:50:28;11.47;87.09
71175;DHT22;58876;51.994;4.472;2022-11-06T06:52:57;11.52;86.57
71175;DHT22;58876;51.994;4.472;2022-11-06T06:55:24;11.49;86.60
71175;DHT22;58876;51.994;4.472;2022-11-06T06:58:00;11.62;86.27
71175;DHT22;58876;51.994;4.472;2022-11-06T07:00:26;11.60;85.37
71175;DHT22;58876;51.994;4.472;2022-11-06T07:02:52;11.60;85.88
71175;DHT22;58876;51.994;4.472;2022-11-06T07:05:18;11.59;85.82
71175;DHT22;58876;51.994;4.472;2022-11-06T07:07:43;11.63;85.80
71175;DHT22;58876;51.994;4.472;2022-11-06T07:10:09;11.59;85.92
71175;DHT22;58876;51.994;4.472;2022-11-06T07:12:34;11.63;85.64
71175;DHT22;58876;51.994;4.472;2022-11-06T07:15:00;11.59;85.42
71175;DHT22;58876;51.994;4.472;2022-11-06T07:17:26;11.81;84.95
71175;DHT22;58876;51.994;4.472;2022-11-06T07:19:52;11.91;84.22
71175;DHT22;58876;51.994;4.472;2022-11-06T07:22:17;12.00;84.33
71175;DHT22;58876;51.994;4.472;2022-11-06T07:24:44;11.76;84.41
71175;DHT22;58876;51.994;4.472;2022-11-06T07:27:09;11.86;84.02
71175;DHT22;58876;51.994;4.472;2022-11-06T07:29:34;11.87;83.35
71175;DHT22;58876;51.994;4.472;2022-11-06T07:32:00;11.98;83.87
71175;DHT22;58876;51.994;4.472;2022-11-06T07:34:25;12.00;83.35
71175;DHT22;58876;51.994;4.472;2022-11-06T07:36:51;11.98;83.31
71175;DHT22;58876;51.994;4.472;2022-11-06T07:39:16;12.16;82.92
71175;DHT22;58876;51.994;4.472;2022-11-06T07:41:42;12.17;82.36
71175;DHT22;58876;51.994;4.472;2022-11-06T07:44:07;12.31;82.70
71175;DHT22;58876;51.994;4.472;2022-11-06T07:46:35;12.38;83.03
71175;DHT22;58876;51.994;4.472;2022-11-06T07:49:00;12.34;82.33
71175;DHT22;58876;51.994;4.472;2022-11-06T07:51:26;12.35;82.54
71175;DHT22;58876;51.994;4.472;2022-11-06T07:53:51;12.31;82.81
71175;DHT22;58876;51.994;4.472;2022-11-06T07:56:18;12.38;82.72
71175;DHT22;58876;51.994;4.472;2022-11-06T07:58:43;12.24;82.52
71175;DHT22;58876;51.994;4.472;2022-11-06T08:01:16;12.11;83.64
71175;DHT22;58876;51.994;4.472;2022-11-06T08:03:42;12.05;83.79
71175;DHT22;58876;51.994;4.472;2022-11-06T08:06:08;12.16;84.02
71175;DHT22;58876;51.994;4.472;2022-11-06T08:08:34;12.04;84.36
71175;DHT22;58876;51.994;4.472;2022-11-06T08:11:08;12.01;84.48
71175;DHT22;58876;51.994;4.472;2022-11-06T08:13:35;11.95;85.50
71175;DHT22;58876;51.994;4.472;2022-11-06T08:16:07;11.77;86.91
71175;DHT22;58876;51.994;4.472;2022-11-06T08:18:33;11.86;87.24
71175;DHT22;58876;51.994;4.472;2022-11-06T08:20:59;11.90;87.46
71175;DHT22;58876;51.994;4.472;2022-11-06T08:23:25;11.90;86.91
71175;DHT22;58876;51.994;4.472;2022-11-06T08:25:59;11.76;86.87
71175;DHT22;58876;51.994;4.472;2022-11-06T08:28:25;11.89;87.03
71175;DHT22;58876;51.994;4.472;2022-11-06T08:30:51;11.86;87.00
71175;DHT22;58876;51.994;4.472;2022-11-06T08:33:18;11.86;87.28
71175;DHT22;58876;51.994;4.472;2022-11-06T08:35:44;11.91;86.99
71175;DHT22;58876;51.994;4.472;2022-11-06T08:38:09;11.86;86.82
71175;DHT22;58876;51.994;4.472;2022-11-06T08:40:37;12.02;86.81
71175;DHT22;58876;51.994;4.472;2022-11-06T08:43:05;11.94;86.44
71175;DHT22;58876;51.994;4.472;2022-11-06T08:45:34;11.90;86.91
71175;DHT22;58876;51.994;4.472;2022-11-06T08:48:02;12.08;86.55
71175;DHT22;58876;51.994;4.472;2022-11-06T08:50:29;12.08;86.47
71175;DHT22;58876;51.994;4.472;2022-11-06T08:52:59;12.02;86.79
71175;DHT22;58876;51.994;4.472;2022-11-06T08:55:29;12.18;86.60
71175;DHT22;58876;51.994;4.472;2022-11-06T08:57:56;12.27;85.95
71175;DHT22;58876;51.994;4.472;2022-11-06T09:00:22;12.32;85.73
71175;DHT22;58876;51.994;4.472;2022-11-06T09:02:48;12.32;85.77
71175;DHT22;58876;51.994;4.472;2022-11-06T09:05:14;12.45;85.50
71175;DHT22;58876;51.994;4.472;2022-11-06T09:07:39;12.66;85.50
71175;DHT22;58876;51.994;4.472;2022-11-06T09:10:05;12.72;84.34
71175;DHT22;58876;51.994;4.472;2022-11-06T09:12:31;12.56;84.05
71175;DHT22;58876;51.994;4.472;2022-11-06T09:14:56;12.72;84.56
71175;DHT22;58876;51.994;4.472;2022-11-06T09:17:22;12.78;84.06
71175;DHT22;58876;51.994;4.472;2022-11-06T09:19:50;12.83;83.91
71175;DHT22;58876;51.994;4.472;2022-11-06T09:22:15;12.89;83.41
71175;DHT22;58876;51.994;4.472;2022-11-06T09:24:41;12.75;84.04
71175;DHT22;58876;51.994;4.472;2022-11-06T09:27:06;12.83;83.70
71175;DHT22;58876;51.994;4.472;2022-11-06T09:29:31;12.97;83.78
71175;DHT22;58876;51.994;4.472;2022-11-06T09:31:57;12.95;83.70
71175;DHT22;58876;51.994;4.472;2022-11-06T09:34:22;12.93;83.63
71175;DHT22;58876;51.994;4.472;2022-11-06T09:36:48;13.09;83.51
71175;DHT22;58876;51.994;4.472;2022-11-06T09:39:13;12.85;83.16
71175;DHT22;58876;51.994;4.472;2022-11-06T09:42:00;13.02;83.45
71175;DHT22;58876;51.994;4.472;2022-11-06T09:46:59;12.83;83.44
71175;DHT22;58876;51.994;4.472;2022-11-06T09:49:38;12.82;82.81
71175;DHT22;58876;51.994;4.472;2022-11-06T09:55:02;13.04;82.55
71175;DHT22;58876;51.994;4.472;2022-11-06T10:00:15;13.30;82.53
71175;DHT22;58876;51.994;4.472;2022-11-06T10:05:31;13.27;82.34
71175;DHT22;58876;51.994;4.472;2022-11-06T10:08:04;13.10;82.73
71175;DHT22;58876;51.994;4.472;2022-11-06T10:19:09;13.41;82.76
71175;DHT22;58876;51.994;4.472;2022-11-06T10:24:45;13.24;84.05
71175;DHT22;58876;51.994;4.472;2022-11-06T10:27:27;13.24;84.55
71175;DHT22;58876;51.994;4.472;2022-11-06T10:30:03;13.14;85.34
71175;DHT22;58876;51.994;4.472;2022-11-06T10:33:03;12.87;85.78
71175;DHT22;58876;51.994;4.472;2022-11-06T10:35:48;12.90;86.32
71175;DHT22;58876;51.994;4.472;2022-11-06T10:38:23;13.18;86.12
71175;DHT22;58876;51.994;4.472;2022-11-06T10:40:51;13.23;85.55
71175;DHT22;58876;51.994;4.472;2022-11-06T10:43:30;13.28;85.84
71175;DHT22;58876;51.994;4.472;2022-11-06T10:46:26;13.02;85.58
71175;DHT22;58876;51.994;4.472;2022-11-06T10:49:00;12.96;85.91
71175;DHT22;58876;51.994;4.472;2022-11-06T10:57:42;12.65;86.47
71175;DHT22;58876;51.994;4.472;2022-11-06T10:59:48;12.76;85.78
71175;DHT22;58876;51.994;4.472;2022-11-06T11:02:24;12.55;85.16
71175;DHT22;58876;51.994;4.472;2022-11-06T11:04:52;12.56;85.54
71175;DHT22;58876;51.994;4.472;2022-11-06T11:07:17;12.70;85.74
71175;DHT22;58876;51.994;4.472;2022-11-06T11:09:43;12.65;85.28
71175;DHT22;58876;51.994;4.472;2022-11-06T11:12:26;12.37;86.31
71175;DHT22;58876;51.994;4.472;2022-11-06T11:15:13;12.34;86.57
71175;DHT22;58876;51.994;4.472;2022-11-06T11:17:41;12.38;87.05
71175;DHT22;58876;51.994;4.472;2022-11-06T11:20:30;12.32;87.17
71175;DHT22;58876;51.994;4.472;2022-11-06T11:23:17;12.25;87.61
71175;DHT22;58876;51.994;4.472;2022-11-06T11:25:47;12.35;87.52
71175;DHT22;58876;51.994;4.472;2022-11-06T11:28:31;12.38;87.72
71175;DHT22;58876;51.994;4.472;2022-11-06T11:31:06;12.11;87.66
71175;DHT22;58876;51.994;4.472;2022-11-06T11:33:33;12.22;88.23
71175;DHT22;58876;51.994;4.472;2022-11-06T11:36:02;12.14;88.21
71175;DHT22;58876;51.994;4.472;2022-11-06T11:38:29;12.14;88.13
71175;DHT22;58876;51.994;4.472;2022-11-06T11:41:11;12.07;88.73
71175;DHT22;58876;51.994;4.472;2022-11-06T11:43:38;12.20;88.24
71175;DHT22;58876;51.994;4.472;2022-11-06T11:48:41;12.25;87.42
71175;DHT22;58876;51.994;4.472;2022-11-06T11:56:47;12.42;86.81
71175;DHT22;58876;51.994;4.472;2022-11-06T11:59:22;12.45;86.75
71175;DHT22;58876;51.994;4.472;2022-11-06T12:01:49;12.46;86.68
71175;DHT22;58876;51.994;4.472;2022-11-06T12:04:27;12.55;86.87
71175;DHT22;58876;51.994;4.472;2022-11-06T12:07:03;12.72;86.65
71175;DHT22;58876;51.994;4.472;2022-11-06T12:09:41;12.60;85.82
71175;DHT22;58876;51.994;4.472;2022-11-06T12:12:20;12.48;85.76
71175;DHT22;58876;51.994;4.472;2022-11-06T12:14:46;12.39;85.25
71175;DHT22;58876;51.994;4.472;2022-11-06T12:17:21;12.41;85.48
71175;DHT22;58876;51.994;4.472;2022-11-06T12:19:53;12.34;84.91
71175;DHT22;58876;51.994;4.472;2022-11-06T12:22:28;12.52;85.37
71175;DHT22;58876;51.994;4.472;2022-11-06T12:25:04;12.42;84.75
71175;DHT22;58876;51.994;4.472;2022-11-06T12:27:57;12.44;84.37
71175;DHT22;58876;51.994;4.472;2022-11-06T12:30:23;12.41;83.81
71175;DHT22;58876;51.994;4.472;2022-11-06T12:33:09;12.42;83.17
71175;DHT22;58876;51.994;4.472;2022-11-06T12:35:59;12.41;84.42
71175;DHT22;58876;51.994;4.472;2022-11-06T12:38:43;12.35;84.52
71175;DHT22;58876;51.994;4.472;2022-11-06T12:41:28;12.39;84.28
71175;DHT22;58876;51.994;4.472;2022-11-06T12:43:55;12.28;84.64
71175;DHT22;58876;51.994;4.472;2022-11-06T12:57:50;12.16;85.22
71175;DHT22;58876;51.994;4.472;2022-11-06T13:00:24;11.91;85.19
71175;DHT22;58876;51.994;4.472;2022-11-06T13:05:30;12.10;85.69
71175;DHT22;58876;51.994;4.472;2022-11-06T13:10:46;12.05;85.86
71175;DHT22;58876;51.994;4.472;2022-11-06T13:13:33;12.08;85.38
71175;DHT22;58876;51.994;4.472;2022-11-06T13:18:55;11.95;86.13
71175;DHT22;58876;51.994;4.472;2022-11-06T13:24:14;11.94;86.75
71175;DHT22;58876;51.994;4.472;2022-11-06T13:26:48;11.87;86.71
71175;DHT22;58876;51.994;4.472;2022-11-06T13:29:20;11.83;87.22
71175;DHT22;58876;51.994;4.472;2022-11-06T13:32:11;11.86;86.98
71175;DHT22;58876;51.994;4.472;2022-11-06T13:34:41;11.79;87.19
71175;DHT22;58876;51.994;4.472;2022-11-06T13:37:17;11.69;87.16
71175;DHT22;58876;51.994;4.472;2022-11-06T13:39:49;11.73;87.63
71175;DHT22;58876;51.994;4.472;2022-11-06T13:42:26;11.69;87.31
71175;DHT22;58876;51.994;4.472;2022-11-06T13:44:55;11.52;87.81
71175;DHT22;58876;51.994;4.472;2022-11-06T13:52:53;11.35;88.42
71175;DHT22;58876;51.994;4.472;2022-11-06T14:04:22;11.25;89.19
71175;DHT22;58876;51.994;4.472;2022-11-06T14:06:59;11.42;88.98
71175;DHT22;58876;51.994;4.472;2022-11-06T14:09:30;11.22;88.68
71175;DHT22;58876;51.994;4.472;2022-11-06T14:12:02;11.22;88.82
71175;DHT22;58876;51.994;4.472;2022-11-06T14:14:32;11.12;89.33
71175;DHT22;58876;51.994;4.472;2022-11-06T14:17:11;11.08;88.67
71175;DHT22;58876;51.994;4.472;2022-11-06T14:19:38;11.14;88.81
71175;DHT22;58876;51.994;4.472;2022-11-06T14:24:34;11.00;88.49
71175;DHT22;58876;51.994;4.472;2022-11-06T14:27:12;11.07;88.83
71175;DHT22;58876;51.994;4.472;2022-11-06T14:30:00;10.91;88.63
71175;DHT22;58876;51.994;4.472;2022-11-06T14:32:41;10.87;88.62
71175;DHT22;58876;51.994;4.472;2022-11-06T14:40:43;10.80;87.61
71175;DHT22;58876;51.994;4.472;2022-11-06T14:43:21;10.84;87.66
71175;DHT22;58876;51.994;4.472;2022-11-06T14:48:30;10.85;87.90
71175;DHT22;58876;51.994;4.472;2022-11-06T14:50:59;10.71;87.75
71175;DHT22;58876;51.994;4.472;2022-11-06T14:53:33;10.68;88.54
71175;DHT22;58876;51.994;4.472;2022-11-06T14:56:10;10.53;88.81
71175;DHT22;58876;51.994;4.472;2022-11-06T14:58:57;10.46;88.26
71175;DHT22;58876;51.994;4.472;2022-11-06T15:01:27;10.44;88.37
71175;DHT22;58876;51.994;4.472;2022-11-06T15:03:56;10.32;87.80
71175;DHT22;58876;51.994;4.472;2022-11-06T15:08:52;10.49;88.00
71175;DHT22;58876;51.994;4.472;2022-11-06T15:16:27;10.26;87.70
71175;DHT22;58876;51.994;4.472;2022-11-06T15:19:00;10.24;87.73
71175;DHT22;58876;51.994;4.472;2022-11-06T15:21:53;10.40;88.14
71175;DHT22;58876;51.994;4.472;2022-11-06T15:24:27;10.22;87.75
71175;DHT22;58876;51.994;4.472;2022-11-06T15:26:58;10.19;87.78
71175;DHT22;58876;51.994;4.472;2022-11-06T15:29:28;10.03;88.31
71175;DHT22;58876;51.994;4.472;2022-11-06T15:32:11;9.99;88.27
71175;DHT22;58876;51.994;4.472;2022-11-06T15:34:42;10.12;88.48
71175;DHT22;58876;51.994;4.472;2022-11-06T15:37:22;10.14;87.84
71175;DHT22;58876;51.994;4.472;2022-11-06T15:39:53;9.95;88.35
71175;DHT22;58876;51.994;4.472;2022-11-06T15:42:25;9.92;88.11
71175;DHT22;58876;51.994;4.472;2022-11-06T15:47:55;10.03;88.13
71175;DHT22;58876;51.994;4.472;2022-11-06T15:50:26;9.83;87.98
71175;DHT22;58876;51.994;4.472;2022-11-06T15:52:53;9.85;88.27
71175;DHT22;58876;51.994;4.472;2022-11-06T15:57:50;9.72;88.31
71175;DHT22;58876;51.994;4.472;2022-11-06T16:00:22;9.88;88.26
71175;DHT22;58876;51.994;4.472;2022-11-06T16:02:58;9.78;88.23
71175;DHT22;58876;51.994;4.472;2022-11-06T16:05:27;9.74;88.52
71175;DHT22;58876;51.994;4.472;2022-11-06T16:07:56;9.77;88.09
71175;DHT22;58876;51.994;4.472;2022-11-06T16:10:23;9.70;88.20
71175;DHT22;58876;51.994;4.472;2022-11-06T16:12:50;9.58;88.11
71175;DHT22;58876;51.994;4.472;2022-11-06T16:15:44;9.68;87.94
71175;DHT22;58876;51.994;4.472;2022-11-06T16:18:27;9.55;88.11
71175;DHT22;58876;51.994;4.472;2022-11-06T16:23:44;9.41;87.95
71175;DHT22;58876;51.994;4.472;2022-11-06T16:26:21;9.38;88.52
71175;DHT22;58876;51.994;4.472;2022-11-06T16:28:50;9.34;88.62
71175;DHT22;58876;51.994;4.472;2022-11-06T16:31:28;9.33;88.81
71175;DHT22;58876;51.994;4.472;2022-11-06T16:33:56;9.38;88.99
71175;DHT22;58876;51.994;4.472;2022-11-06T16:36:25;9.37;89.20
71175;DHT22;58876;51.994;4.472;2022-11-06T16:38:52;9.43;88.78
71175;DHT22;58876;51.994;4.472;2022-11-06T16:41:57;9.54;88.90
71175;DHT22;58876;51.994;4.472;2022-11-06T16:49:36;9.62;88.98
71175;DHT22;58876;51.994;4.472;2022-11-06T16:54:48;9.65;89.07
71175;DHT22;58876;51.994;4.472;2022-11-06T16:57:24;9.59;88.74
71175;DHT22;58876;51.994;4.472;2022-11-06T17:00:41;9.50;89.44
71175;DHT22;58876;51.994;4.472;2022-11-06T17:02:47;9.64;89.20
71175;DHT22;58876;51.994;4.472;2022-11-06T17:05:22;9.65;89.32
71175;DHT22;58876;51.994;4.472;2022-11-06T17:10:50;9.70;89.07
71175;DHT22;58876;51.994;4.472;2022-11-06T17:13:19;9.59;89.69
71175;DHT22;58876;51.994;4.472;2022-11-06T17:15:53;9.59;89.57
71175;DHT22;58876;51.994;4.472;2022-11-06T17:18:24;9.67;89.17
71175;DHT22;58876;51.994;4.472;2022-11-06T17:20:59;9.70;89.56
71175;DHT22;58876;51.994;4.472;2022-11-06T17:23:26;9.67;89.51
71175;DHT22;58876;51.994;4.472;2022-11-06T17:26:05;9.64;89.71
71175;DHT22;58876;51.994;4.472;2022-11-06T17:28:32;9.68;89.52
71175;DHT22;58876;51.994;4.472;2022-11-06T17:30:58;9.67;89.52
71175;DHT22;58876;51.994;4.472;2022-11-06T17:33:23;9.68;89.27
71175;DHT22;58876;51.994;4.472;2022-11-06T17:35:49;9.70;89.41
71175;DHT22;58876;51.994;4.472;2022-11-06T17:38:16;9.74;89.33
71175;DHT22;58876;51.994;4.472;2022-11-06T17:40:43;9.67;89.41
71175;DHT22;58876;51.994;4.472;2022-11-06T17:43:09;9.79;89.44
71175;DHT22;58876;51.994;4.472;2022-11-06T17:45:36;9.78;89.48
71175;DHT22;58876;51.994;4.472;2022-11-06T17:48:02;9.79;89.49
71175;DHT22;58876;51.994;4.472;2022-11-06T17:50:28;9.83;89.17
71175;DHT22;58876;51.994;4.472;2022-11-06T17:52:53;9.98;88.68
71175;DHT22;58876;51.994;4.472;2022-11-06T17:55:19;9.96;88.56
71175;DHT22;58876;51.994;4.472;2022-11-06T17:57:44;9.98;88.82
71175;DHT22;58876;51.994;4.472;2022-11-06T18:00:11;9.93;88.80
71175;DHT22;58876;51.994;4.472;2022-11-06T18:02:37;9.92;88.85
71175;DHT22;58876;51.994;4.472;2022-11-06T18:05:05;9.86;88.95
71175;DHT22;58876;51.994;4.472;2022-11-06T18:07:30;10.01;88.95
71175;DHT22;58876;51.994;4.472;2022-11-06T18:09:57;10.13;88.71
71175;DHT22;58876;51.994;4.472;2022-11-06T18:12:22;10.08;88.75
71175;DHT22;58876;51.994;4.472;2022-11-06T18:14:51;10.12;88.51